Petit-Hallet, Belgium

8:11 PM CET on February 26, 2017 (GMT +0100)
Belgium | | Change Station

Elev 318 ft 50.71 °N, 5.04 °E | Updated 11 seconds ago

Overcast
Overcast
49.8 °F
Feels Like 47 °F
N
7.0
Wind Variable Wind from South
Gusts 8.0 mph

Today
High -- | Low -- °F
--% Chance of Precip.
Yesterday
High -- | Low -- °F
Precip. -- in
Pressure 29.83 in
Visibility 6.2 miles
Clouds Mostly Cloudy 3700 ft
Windchill 47 °F
Dew Point 46 °F
Humidity 87%
Rainfall 0.00 in
Snow Depth Not available.
7:30 AM 6:16 PM
New Moon, 0% visible
METAR EBBE 261855Z AUTO 19015KT 9999 BKN037/// 10/07 Q1010 BLU
Pressure 29.83 in
Visibility 6.2 miles
Clouds Mostly Cloudy 3700 ft
Windchill 47 °F
Dew Point 46 °F
Humidity 87%
Rainfall 0.00 in
Snow Depth Not available.
7:30 AM 6:16 PM
New Moon, 0% visible
METAR EBBE 261855Z AUTO 19015KT 9999 BKN037/// 10/07 Q1010 BLU

Get Your Daily Forecast Email!

Thanks for signing up!

Be on the lookout for a verification email in your inbox.

You'll start receiving the daily forecast at 8 AM.

×

10-Day Weather Forecast

×

Almanac

Astronomy

Feb. 26, 2017 Rise Set
Actual Time
Civil Twilight
Nautical Twilight
Astronomical Twilight
Moon
Length of Visible Light
Length of Day
Tomorrow will be .
, % of the Moon is Illuminated

Today's Extremes

Country Highs Country Lows

Community

WunderPhotos

Upload Photos

1,962,540 photos uploaded!

WunderBlog® & News

Nearby

Air Quality

  Air Quality AQ Index Pollutant
Not available.

Snow Depth

Station Depth Elevation

Earthquake Activity

City Distance Mag. Time & Date
Minimum magnitude displayed is 2.5.

Coastal Water Temperatures

Place Temperature

Stations

Nearby Weather Stations

Station Location Temp. Windchill Dew Point Humidity Wind Precip. Elev Updated Type